Claremont, NH (03743)

1:11 AM EST on November 29, 2014 (GMT -0500)
Airport Hill | Change Station
CLOSE
Current Station
Personal Weather Station
Location: Claremont, NH
Elevation: 545 ft
Nearby Weather Stations

Elev 545 ft 43.37 °N, 72.37 °W | Updated 9 seconds ago

Partly Cloudy
Partly Cloudy
13.5 °F
Feels Like 14 °F
N
0.0
Wind Variable Wind from SE
Gusts 0.0 mph

Today
High -- | Low -- °F
--% Chance of Precip.
Yesterday
High -- | Low -- °F
Precip. -- in
6:59 AM 4:15 PM
Waxing Crescent, 48% visible
Pressure 30.24 in
Visibility 10.0 miles
Clouds Clear
Windchill 14 °F
Dew Point 10 °F
Humidity 86%
Rainfall 0.00 in
Snow Depth Not available.
UV 0 out of 12
Pollen .10 out of 12
Air Quality Not available.
Flu Activity Not available.
METAR KLEB 290553Z AUTO 00000KT 10SM CLR M13/M15 A3020 RMK AO2 SLP240 I1000 I6000 T11281150 11072 21144 51012

More Conditions Fewer Conditions

Pressure 30.24 in
Visibility 10.0 miles
Clouds Clear
Windchill 14 °F
Dew Point 10 °F
Humidity 86%
Rainfall 0.00 in
Snow Depth Not available.
UV 0 out of 12
Pollen .10 out of 12
Air Quality Not available.
Flu Activity Not available.
METAR KLEB 290553Z AUTO 00000KT 10SM CLR M13/M15 A3020 RMK AO2 SLP240 I1000 I6000 T11281150 11072 21144 51012

More Conditions Fewer Conditions

10-Day Weather Forecast

Almanac

Astronomy

Nov. 29, 2014 Rise Set
Actual Time
Civil Twilight
Nautical Twilight
Astronomical Twilight
Moon
Length of Visible Light
Length of Day
Tomorrow will be .
, % of the Moon is Illuminated

Today's Extremes

State Highs State Lows

Community

WunderPhotos

Upload Photos

1,774,426 photos uploaded!

WunderBlogs® & News

Nearby

Air Quality

  Air Quality AQ Index Pollutant
Not available.

Snow Depth

Station Depth Elevation

Earthquake Activity

City Distance Mag. Time & Date
Minimum magnitude displayed is 2.5.

Coastal Water Temperatures

Place Temperature

Nearby Weather Stations